Time;durP1;ratioP1;P1;durP2;ratioP2;P2;SDS_P1;SDS_P2;PMS_P1;PMS_P2;Temp;Humidity;BMP_temperature;BMP_pressure;BME280_temperature;BME280_humidity;BME280_pressure;Samples;Min_cycle;Max_cycle;Signal;HPM_P1;HPM_P2
2022/01/24 00:05:20;;;;;;;51.95;31.15;;;;;;;;;;12548664;28;20052;-75
2022/01/24 00:11:27;;;;;;;39.40;25.05;;;;;;;;;;12546241;28;20060;-75
2022/01/24 00:29:51;;;;;;;32.80;26.15;;;;;;;;;;12545612;28;20394;-75
2022/01/24 00:35:52;;;;;;;34.42;21.75;;;;;;;;;;12546203;28;20057;-75
2022/01/24 00:54:42;;;;;;;28.80;25.42;;;;;;;;;;12545531;28;20502;-75
2022/01/24 01:00:22;;;;;;;28.73;21.15;;;;;;;;;;12545344;28;20048;-75
2022/01/24 01:06:23;;;;;;;24.70;16.50;;;;;;;;;;12527953;28;20059;-75
2022/01/24 01:18:45;;;;;;;29.77;21.38;;;;;;;;;;12544750;28;20520;-75
2022/01/24 01:24:52;;;;;;;31.38;24.63;;;;;;;;;;12543175;28;20282;-74
2022/01/24 01:30:57;;;;;;;24.77;17.92;;;;;;;;;;12544606;28;20490;-76
2022/01/24 01:55:50;;;;;;;33.42;22.92;;;;;;;;;;12543972;28;20041;-75
2022/01/24 02:01:52;;;;;;;25.23;17.90;;;;;;;;;;12542547;28;20044;-75
2022/01/24 02:07:54;;;;;;;30.10;20.38;;;;;;;;;;12542692;28;20509;-75
2022/01/24 02:13:58;;;;;;;27.33;19.48;;;;;;;;;;12543472;28;20021;-75
2022/01/24 02:26:16;;;;;;;34.63;24.85;;;;;;;;;;12552838;28;20047;-76
2022/01/24 02:32:18;;;;;;;27.10;18.67;;;;;;;;;;12552496;28;20044;-75
2022/01/24 02:57:12;;;;;;;32.70;22.05;;;;;;;;;;12549763;28;20497;-76
2022/01/24 03:03:14;;;;;;;29.75;18.92;;;;;;;;;;12550232;28;20033;-75
2022/01/24 03:09:16;;;;;;;25.57;15.43;;;;;;;;;;12549512;28;20362;-76
2022/01/24 03:15:17;;;;;;;23.67;16.25;;;;;;;;;;12532583;28;20040;-76
2022/01/24 03:21:19;;;;;;;24.58;15.82;;;;;;;;;;12532761;28;20131;-76
2022/01/24 03:27:21;;;;;;;27.87;17.20;;;;;;;;;;12548835;28;20041;-76
2022/01/24 03:33:23;;;;;;;22.05;14.57;;;;;;;;;;12548498;28;20067;-75
2022/01/24 03:39:24;;;;;;;22.45;14.43;;;;;;;;;;12547983;28;20048;-75
2022/01/24 03:45:42;;;;;;;23.30;15.23;;;;;;;;;;12547526;28;20047;-76
2022/01/24 03:51:44;;;;;;;23.33;17.23;;;;;;;;;;12549428;28;20041;-76
2022/01/24 03:57:46;;;;;;;26.70;17.45;;;;;;;;;;12547226;28;20045;-76
2022/01/24 04:03:47;;;;;;;21.08;14.55;;;;;;;;;;12548264;28;20041;-75
2022/01/24 04:09:50;;;;;;;44.35;29.58;;;;;;;;;;12547739;28;20029;-76
2022/01/24 04:16:13;;;;;;;48.00;31.20;;;;;;;;;;12547170;28;20044;-76
2022/01/24 04:22:17;;;;;;;36.33;24.13;;;;;;;;;;12547276;28;20040;-76
2022/01/24 04:28:18;;;;;;;49.28;30.88;;;;;;;;;;12545782;28;20033;-76
2022/01/24 04:34:20;;;;;;;30.45;20.17;;;;;;;;;;12546558;28;20060;-76
2022/01/24 04:40:24;;;;;;;35.80;23.85;;;;;;;;;;12543913;28;20045;-76
2022/01/24 04:52:51;;;;;;;46.45;30.42;;;;;;;;;;12545948;28;20482;-76
2022/01/24 04:58:52;;;;;;;48.55;29.75;;;;;;;;;;12544222;28;20049;-76
2022/01/24 05:04:56;;;;;;;36.60;22.05;;;;;;;;;;12528230;28;20592;-76
2022/01/24 05:11:09;;;;;;;29.42;17.98;;;;;;;;;;12544941;28;20037;-75
2022/01/24 05:23:39;;;;;;;33.75;20.63;;;;;;;;;;12544498;28;20033;-76
2022/01/24 05:29:41;;;;;;;20.77;13.27;;;;;;;;;;12526274;28;20036;-76
2022/01/24 05:35:43;;;;;;;22.98;12.27;;;;;;;;;;12544581;28;20053;-76
2022/01/24 05:41:44;;;;;;;30.73;19.15;;;;;;;;;;12544133;28;20055;-76
2022/01/24 05:47:46;;;;;;;23.45;16.30;;;;;;;;;;12543976;28;20029;-76
2022/01/24 05:53:48;;;;;;;30.55;17.90;;;;;;;;;;12550535;28;20033;-76
2022/01/24 05:59:50;;;;;;;38.90;23.80;;;;;;;;;;12535772;28;20044;-75
2022/01/24 06:05:51;;;;;;;40.08;24.98;;;;;;;;;;12554528;28;20037;-77
2022/01/24 06:11:53;;;;;;;18.95;12.73;;;;;;;;;;12552650;28;20045;-76
2022/01/24 06:17:55;;;;;;;29.08;18.13;;;;;;;;;;12551524;28;20084;-76
2022/01/24 06:23:56;;;;;;;29.85;16.98;;;;;;;;;;12552311;28;20025;-76
2022/01/24 06:29:58;;;;;;;35.85;21.55;;;;;;;;;;12551622;28;20044;-76
2022/01/24 06:36:00;;;;;;;21.63;14.10;;;;;;;;;;12550916;28;20045;-75
2022/01/24 06:42:22;;;;;;;26.87;15.87;;;;;;;;;;12548681;28;20029;-76
2022/01/24 06:48:23;;;;;;;26.08;18.02;;;;;;;;;;12515671;28;20029;-76
2022/01/24 06:54:25;;;;;;;41.80;25.20;;;;;;;;;;12519125;28;20033;-76
2022/01/24 07:00:29;;;;;;;37.25;23.38;;;;;;;;;;12518083;28;20028;-76
2022/01/24 07:06:30;;;;;;;33.42;20.85;;;;;;;;;;12511158;28;20497;-76
2022/01/24 07:12:32;;;;;;;32.65;22.10;;;;;;;;;;12514741;28;20021;-76
2022/01/24 07:24:36;;;;;;;23.98;14.90;;;;;;;;;;12508951;28;20045;-75
2022/01/24 07:30:38;;;;;;;22.83;15.10;;;;;;;;;;12522606;28;20033;-75
2022/01/24 07:36:39;;;;;;;28.60;22.40;;;;;;;;;;12516629;28;20061;-75
2022/01/24 07:48:48;;;;;;;22.63;16.10;;;;;;;;;;12558816;28;23539;-76
2022/01/24 07:54:50;;;;;;;31.80;19.55;;;;;;;;;;12480488;28;20048;-76
2022/01/24 08:00:51;;;;;;;27.35;18.67;;;;;;;;;;12497701;28;20475;-75
2022/01/24 08:06:53;;;;;;;24.88;18.10;;;;;;;;;;12495640;28;20052;-75
2022/01/24 08:12:55;;;;;;;19.98;14.38;;;;;;;;;;12496885;28;20033;-75
2022/01/24 08:18:58;;;;;;;22.92;20.42;;;;;;;;;;12506803;28;20021;-76
2022/01/24 08:25:04;;;;;;;27.15;20.15;;;;;;;;;;12499134;28;20041;-76
2022/01/24 08:40:24;;;;;;;21.50;19.35;;;;;;;;;;12562250;28;20759;-75
2022/01/24 08:46:26;;;;;;;22.07;19.83;;;;;;;;;;12526719;28;20071;-75
2022/01/24 08:52:28;;;;;;;19.83;17.73;;;;;;;;;;12523682;28;20037;-75
2022/01/24 08:58:30;;;;;;;19.30;17.23;;;;;;;;;;12531754;28;20048;-75
2022/01/24 09:04:31;;;;;;;20.33;18.23;;;;;;;;;;12525044;28;20036;-76
2022/01/24 09:10:35;;;;;;;19.83;17.75;;;;;;;;;;12522440;28;20033;-76
2022/01/24 09:16:37;;;;;;;21.15;19.15;;;;;;;;;;12526425;28;20402;-76
2022/01/24 09:22:38;;;;;;;24.83;22.33;;;;;;;;;;12559604;28;20032;-77
2022/01/24 09:28:40;;;;;;;25.15;22.67;;;;;;;;;;12522615;28;20032;-77
2022/01/24 09:34:42;;;;;;;21.17;19.05;;;;;;;;;;12513621;28;20053;-75
2022/01/24 09:40:44;;;;;;;21.67;19.38;;;;;;;;;;12496598;28;20040;-76
2022/01/24 09:46:46;;;;;;;26.23;23.08;;;;;;;;;;12505630;28;20044;-77
2022/01/24 09:52:48;;;;;;;28.92;25.70;;;;;;;;;;12504720;28;20029;-77
2022/01/24 09:58:50;;;;;;;22.88;20.48;;;;;;;;;;12506951;28;20406;-76
2022/01/24 10:04:52;;;;;;;19.65;17.63;;;;;;;;;;12487036;28;20485;-76
2022/01/24 10:10:55;;;;;;;19.10;16.67;;;;;;;;;;12490467;28;20040;-75
2022/01/24 10:17:12;;;;;;;17.27;15.48;;;;;;;;;;12499864;28;20474;-75
2022/01/24 10:23:26;;;;;;;16.83;14.10;;;;;;;;;;12471097;28;20445;-75
2022/01/24 10:29:27;;;;;;;15.05;13.45;;;;;;;;;;12482695;28;20033;-75
2022/01/24 10:35:44;;;;;;;14.98;13.35;;;;;;;;;;12489450;28;20407;-75
2022/01/24 10:47:54;;;;;;;15.27;13.50;;;;;;;;;;12479981;28;20052;-76
2022/01/24 10:53:57;;;;;;;11.60;9.90;;;;;;;;;;12495142;28;20036;-76
2022/01/24 11:00:06;;;;;;;12.57;10.85;;;;;;;;;;12475010;28;20064;-77
2022/01/24 11:06:08;;;;;;;10.52;9.32;;;;;;;;;;12486825;28;20097;-76
2022/01/24 11:12:12;;;;;;;10.70;9.70;;;;;;;;;;12467321;28;20033;-76
2022/01/24 11:18:18;;;;;;;13.13;11.73;;;;;;;;;;12482975;28;20490;-76
2022/01/24 11:24:26;;;;;;;10.15;9.15;;;;;;;;;;12466591;28;20379;-75
2022/01/24 11:30:49;;;;;;;12.98;11.70;;;;;;;;;;12478881;28;20033;-76
2022/01/24 11:36:50;;;;;;;12.80;11.40;;;;;;;;;;12471815;28;20065;-80
2022/01/24 11:42:53;;;;;;;12.52;11.32;;;;;;;;;;12499017;28;20043;-75
2022/01/24 11:49:05;;;;;;;13.23;11.93;;;;;;;;;;12484861;28;20607;-73
2022/01/24 12:01:19;;;;;;;17.55;15.70;;;;;;;;;;12475617;28;20374;-75
2022/01/24 12:07:21;;;;;;;21.45;19.10;;;;;;;;;;12484238;28;20049;-77
2022/01/24 12:13:36;;;;;;;18.15;16.35;;;;;;;;;;12482551;28;20025;-73
2022/01/24 12:19:38;;;;;;;19.27;17.38;;;;;;;;;;12492768;28;20425;-72
2022/01/24 12:26:02;;;;;;;24.13;21.55;;;;;;;;;;12484824;28;20536;-73
2022/01/24 12:32:04;;;;;;;21.58;19.30;;;;;;;;;;12523215;28;20040;-74
2022/01/24 12:38:15;;;;;;;23.95;20.55;;;;;;;;;;12532215;28;20072;-74
2022/01/24 12:50:43;;;;;;;17.35;15.48;;;;;;;;;;12494209;28;20033;-73
2022/01/24 12:56:45;;;;;;;20.55;18.45;;;;;;;;;;12492392;28;20508;-73
2022/01/24 13:02:47;;;;;;;26.13;23.42;;;;;;;;;;12493795;28;20056;-73
2022/01/24 13:08:56;;;;;;;26.85;23.98;;;;;;;;;;12492259;28;20038;-73
2022/01/24 13:15:02;;;;;;;28.00;24.70;;;;;;;;;;12493093;28;20478;-73
2022/01/24 13:21:11;;;;;;;23.08;20.33;;;;;;;;;;12493105;28;20038;-73
2022/01/24 13:27:12;;;;;;;24.35;21.30;;;;;;;;;;12500849;28;20475;-73
2022/01/24 13:33:19;;;;;;;24.13;21.63;;;;;;;;;;12500418;28;20481;-73
2022/01/24 13:39:21;;;;;;;21.35;19.05;;;;;;;;;;12499971;28;20049;-73
2022/01/24 13:45:23;;;;;;;21.33;19.10;;;;;;;;;;12501023;28;20042;-74
2022/01/24 13:51:36;;;;;;;27.23;24.33;;;;;;;;;;12500876;28;20059;-73
2022/01/24 13:57:43;;;;;;;22.38;19.50;;;;;;;;;;12500507;28;20045;-76
2022/01/24 14:03:55;;;;;;;23.15;19.58;;;;;;;;;;12498845;28;20034;-76
2022/01/24 14:09:57;;;;;;;18.67;16.77;;;;;;;;;;12499874;28;20044;-75
2022/01/24 14:16:06;;;;;;;23.10;19.63;;;;;;;;;;12498773;28;20052;-77
2022/01/24 14:22:10;;;;;;;22.00;18.90;;;;;;;;;;12499352;28;20107;-76
2022/01/24 14:28:13;;;;;;;21.35;19.10;;;;;;;;;;12481522;28;20072;-74
2022/01/24 14:34:14;;;;;;;;;;;;;;;;;;12497714;28;20046;-76
2022/01/24 14:40:35;;;;;;;19.83;17.80;;;;;;;;;;12497366;28;19917;-77
2022/01/24 14:46:38;;;;;;;20.95;18.70;;;;;;;;;;12497187;28;20040;-76
2022/01/24 14:52:41;;;;;;;22.58;20.15;;;;;;;;;;12497944;28;20037;-75
2022/01/24 14:58:42;;;;;;;;;;;;;;;;;;12496956;28;20609;-76
2022/01/24 15:04:45;;;;;;;22.15;19.38;;;;;;;;;;12497588;28;19913;-76
2022/01/24 15:10:47;;;;;;;24.38;20.20;;;;;;;;;;12495950;28;20398;-75
2022/01/24 15:29:17;;;;;;;23.25;20.15;;;;;;;;;;12476593;28;20037;-75
2022/01/24 15:35:19;;;;;;;22.35;19.92;;;;;;;;;;12494648;28;20057;-75
2022/01/24 15:41:22;;;;;;;22.33;19.73;;;;;;;;;;12496200;28;20029;-76
2022/01/24 15:53:35;;;;;;;21.52;18.80;;;;;;;;;;12495352;28;20069;-76
2022/01/24 15:59:38;;;;;;;21.98;19.60;;;;;;;;;;12494180;28;20394;-76
2022/01/24 16:05:40;;;;;;;18.57;16.33;;;;;;;;;;12495384;28;20037;-76
2022/01/24 16:11:41;;;;;;;25.83;22.33;;;;;;;;;;12493580;28;20037;-76
2022/01/24 16:17:43;;;;;;;31.33;23.63;;;;;;;;;;12494238;28;20048;-76
2022/01/24 16:24:06;;;;;;;29.00;23.80;;;;;;;;;;12493105;28;20033;-76
2022/01/24 16:30:08;;;;;;;26.90;23.70;;;;;;;;;;12495051;28;20042;-76
2022/01/24 16:36:11;;;;;;;27.10;23.67;;;;;;;;;;12493542;28;20418;-76
2022/01/24 16:42:16;;;;;;;26.67;22.83;;;;;;;;;;12493819;28;20025;-75
2022/01/24 16:48:17;;;;;;;26.98;22.45;;;;;;;;;;12493725;28;20402;-75
2022/01/24 16:54:22;;;;;;;24.40;19.98;;;;;;;;;;12492500;28;20044;-75
2022/01/24 17:00:24;;;;;;;28.55;25.15;;;;;;;;;;12499899;28;20417;-75
2022/01/24 17:06:26;;;;;;;28.30;22.83;;;;;;;;;;12503378;28;20048;-75
2022/01/24 17:12:30;;;;;;;28.42;24.35;;;;;;;;;;12502764;28;20044;-76
2022/01/24 17:18:32;;;;;;;25.73;20.52;;;;;;;;;;12501289;28;20375;-75
2022/01/24 17:24:34;;;;;;;21.67;18.70;;;;;;;;;;12501140;28;20040;-75
2022/01/24 17:30:36;;;;;;;21.45;19.13;;;;;;;;;;12501730;28;20029;-76
2022/01/24 17:36:38;;;;;;;20.15;17.13;;;;;;;;;;12500269;28;20049;-75
2022/01/24 17:42:41;;;;;;;18.70;15.77;;;;;;;;;;12500281;28;20041;-76
2022/01/24 17:48:43;;;;;;;21.30;17.85;;;;;;;;;;12499529;28;20470;-76
2022/01/24 17:54:45;;;;;;;21.60;19.30;;;;;;;;;;12500737;28;20951;-76
2022/01/24 18:00:47;;;;;;;21.37;19.07;;;;;;;;;;12499137;28;20038;-76
2022/01/24 18:06:50;;;;;;;15.90;13.77;;;;;;;;;;12501066;28;20355;-76
2022/01/24 18:12:53;;;;;;;;;;;;;;;;;;12482428;28;20041;-75
2022/01/24 18:18:55;;;;;;;14.35;12.85;;;;;;;;;;12481961;28;20492;-75
2022/01/24 18:24:56;;;;;;;13.20;11.20;;;;;;;;;;12498440;28;20036;-76
2022/01/24 18:30:58;;;;;;;10.18;9.20;;;;;;;;;;12499408;28;20493;-76
2022/01/24 18:37:00;;;;;;;10.43;9.43;;;;;;;;;;12481071;28;20061;-76
2022/01/24 18:43:02;;;;;;;10.38;9.30;;;;;;;;;;12498517;28;20036;-75
2022/01/24 18:49:06;;;;;;;10.60;9.47;;;;;;;;;;12496823;28;20250;-75
2022/01/24 18:55:08;;;;;;;13.40;12.05;;;;;;;;;;12496574;28;20060;-75
2022/01/24 19:01:10;;;;;;;15.32;13.80;;;;;;;;;;12496486;28;20048;-75
2022/01/24 19:07:12;;;;;;;14.27;12.77;;;;;;;;;;12496843;28;20382;-75
2022/01/24 19:13:17;;;;;;;14.30;12.90;;;;;;;;;;12496762;28;20045;-75
2022/01/24 19:19:32;;;;;;;12.38;11.07;;;;;;;;;;12495766;28;20208;-75
2022/01/24 19:25:34;;;;;;;10.93;9.88;;;;;;;;;;12495022;28;20470;-75
2022/01/24 19:31:36;;;;;;;11.50;10.30;;;;;;;;;;12479048;28;20053;-75
2022/01/24 19:37:38;;;;;;;11.50;10.43;;;;;;;;;;12496304;28;20057;-76
2022/01/24 19:43:39;;;;;;;12.75;11.50;;;;;;;;;;12497014;28;20025;-75
2022/01/24 19:49:41;;;;;;;9.48;8.48;;;;;;;;;;12494648;28;20482;-76
2022/01/24 19:55:47;;;;;;;15.00;13.50;;;;;;;;;;12477984;28;20038;-76
2022/01/24 20:01:49;;;;;;;13.60;11.05;;;;;;;;;;12477953;28;20084;-76
2022/01/24 20:07:51;;;;;;;12.55;11.35;;;;;;;;;;12495104;28;20446;-76
2022/01/24 20:13:53;;;;;;;11.27;10.07;;;;;;;;;;12495006;28;20071;-75
2022/01/24 20:19:54;;;;;;;13.43;12.07;;;;;;;;;;12493244;28;20042;-75
2022/01/24 20:25:56;;;;;;;14.00;12.57;;;;;;;;;;12493206;28;20034;-76
2022/01/24 20:31:59;;;;;;;14.13;12.73;;;;;;;;;;12493063;28;20041;-75
2022/01/24 20:38:00;;;;;;;13.53;12.20;;;;;;;;;;12492905;28;20054;-76
2022/01/24 20:44:02;;;;;;;13.70;12.30;;;;;;;;;;12493001;28;20474;-75
2022/01/24 20:52:06;;;;;;;16.65;14.98;;;;;;;;;;12587013;28;20528;-76
2022/01/24 20:58:08;;;;;;;13.73;12.23;;;;;;;;;;12586829;28;20029;-76
2022/01/24 21:04:11;;;;;;;11.02;9.93;;;;;;;;;;12586404;28;20183;-75
2022/01/24 21:10:21;;;;;;;13.45;12.05;;;;;;;;;;12584697;28;20048;-76
2022/01/24 21:16:24;;;;;;;9.80;8.88;;;;;;;;;;12584565;28;20029;-76
2022/01/24 21:22:26;;;;;;;11.82;10.80;;;;;;;;;;12585253;28;20040;-76
2022/01/24 21:28:27;;;;;;;11.15;10.07;;;;;;;;;;12584263;28;20052;-76
2022/01/24 21:40:49;;;;;;;9.23;8.30;;;;;;;;;;12584339;28;20406;-75
2022/01/24 21:46:51;;;;;;;7.22;6.63;;;;;;;;;;12565961;28;20061;-75
2022/01/24 21:52:54;;;;;;;7.18;6.47;;;;;;;;;;12582817;28;20032;-74
2022/01/24 21:58:55;;;;;;;7.80;7.10;;;;;;;;;;12558345;28;20036;-75
2022/01/24 22:04:57;;;;;;;7.18;6.57;;;;;;;;;;12549111;28;20291;-75
2022/01/24 22:10:59;;;;;;;7.45;6.75;;;;;;;;;;12550332;28;20059;-75
2022/01/24 22:17:00;;;;;;;6.15;5.65;;;;;;;;;;12550568;28;20044;-75
2022/01/24 22:29:33;;;;;;;6.40;5.90;;;;;;;;;;12548380;28;20056;-76
2022/01/24 22:35:35;;;;;;;6.00;5.50;;;;;;;;;;12548278;28;20037;-76
2022/01/24 22:47:47;;;;;;;7.78;7.07;;;;;;;;;;12548686;28;20053;-75
2022/01/24 22:53:49;;;;;;;6.78;6.10;;;;;;;;;;12530478;28;20029;-75
2022/01/24 22:59:50;;;;;;;6.45;5.95;;;;;;;;;;12530286;28;20398;-75
2022/01/24 23:05:52;;;;;;;7.03;6.43;;;;;;;;;;12546535;28;20029;-75
2022/01/24 23:11:54;;;;;;;5.75;5.28;;;;;;;;;;12545352;28;20051;-75
2022/01/24 23:23:57;;;;;;;6.35;5.75;;;;;;;;;;12545898;28;20064;-75
2022/01/24 23:30:03;;;;;;;6.35;5.78;;;;;;;;;;12529004;28;20450;-75
2022/01/24 23:42:26;;;;;;;6.15;5.60;;;;;;;;;;12548260;28;20040;-74
2022/01/24 23:48:27;;;;;;;5.38;4.97;;;;;;;;;;12547800;28;20057;-75
2022/01/24 23:54:32;;;;;;;5.55;5.05;;;;;;;;;;12545777;28;20044;-75
